createdAt,value
2023-04-29T00:01:17.206Z,100182.38
2023-04-29T00:03:43.708Z,100186.81
2023-04-29T00:06:10.288Z,100175.53
2023-04-29T00:08:36.716Z,100182.47
2023-04-29T00:11:03.202Z,100182.75
2023-04-29T00:13:29.556Z,100162.56
2023-04-29T00:15:55.894Z,100146.34
2023-04-29T00:18:22.239Z,100129.22
2023-04-29T00:20:48.583Z,100103.03
2023-04-29T00:23:14.914Z,100075.75
2023-04-29T00:25:41.267Z,100054.31
2023-04-29T00:28:07.598Z,100022.66
2023-04-29T00:30:33.951Z,100001.91
2023-04-29T00:33:00.360Z,99967.69
2023-04-29T00:35:26.727Z,99952.50
2023-04-29T00:37:53.058Z,99930.50
2023-04-29T00:40:19.425Z,99905.03
2023-04-29T00:42:45.773Z,99888.44
2023-04-29T00:45:12.108Z,99865.53
2023-04-29T00:47:38.742Z,99840.88
2023-04-29T00:50:06.093Z,99824.53
2023-04-29T00:52:32.449Z,99801.50
2023-04-29T00:54:58.792Z,99777.06
2023-04-29T00:57:25.367Z,99751.94
2023-04-29T00:59:51.912Z,99738.97
2023-04-29T01:02:18.387Z,99720.06
2023-04-29T01:04:44.782Z,99698.66
2023-04-29T01:07:21.373Z,99682.53
2023-04-29T01:10:03.574Z,99664.94
2023-04-29T01:12:35.882Z,99642.84
2023-04-29T01:15:05.459Z,99636.66
2023-04-29T01:17:36.572Z,99605.53
2023-04-29T01:20:03.024Z,99591.84
2023-04-29T01:22:29.390Z,99576.56
2023-04-29T01:24:55.737Z,99560.75
2023-04-29T01:27:30.275Z,99544.91
2023-04-29T01:30:02.814Z,99531.78
2023-04-29T01:32:34.843Z,99524.78
2023-04-29T01:35:36.535Z,99516.75
2023-04-29T01:38:23.478Z,99507.16
2023-04-29T01:41:22.827Z,99492.38
2023-04-29T01:43:50.834Z,99489.00
2023-04-29T01:46:17.542Z,99471.78
2023-04-29T01:48:44.112Z,99461.66
2023-04-29T01:51:10.469Z,99447.91
2023-04-29T01:53:36.809Z,99428.22
2023-04-29T01:56:03.151Z,99415.25
2023-04-29T01:58:29.511Z,99391.34
2023-04-29T02:00:55.926Z,99377.38
2023-04-29T02:03:22.415Z,99358.69
2023-04-29T02:05:48.786Z,99335.63
2023-04-29T02:08:15.125Z,99319.53
2023-04-29T02:10:41.489Z,99308.38
2023-04-29T02:13:07.845Z,99284.50
2023-04-29T02:15:34.203Z,99266.09
2023-04-29T02:18:00.581Z,99253.38
2023-04-29T02:20:26.974Z,99244.56
2023-04-29T02:22:53.367Z,99227.19
2023-04-29T02:25:19.710Z,99210.09
2023-04-29T02:27:46.087Z,99198.19
2023-04-29T02:30:12.490Z,99174.31
2023-04-29T02:32:38.880Z,99160.56
2023-04-29T02:35:05.806Z,99142.16
2023-04-29T02:37:32.145Z,99130.22
2023-04-29T02:39:58.482Z,99112.59
2023-04-29T02:42:24.833Z,99116.72
2023-04-29T02:44:51.163Z,99094.16
2023-04-29T02:47:17.515Z,99096.50
2023-04-29T02:49:43.850Z,99096.22
2023-04-29T02:52:10.191Z,99076.78
2023-04-29T02:54:36.551Z,99064.03
2023-04-29T02:57:02.905Z,99062.53
2023-04-29T02:59:29.240Z,99032.22
2023-04-29T03:01:55.594Z,99032.47
2023-04-29T03:04:22.090Z,99024.44
2023-04-29T03:06:48.724Z,99017.69
2023-04-29T03:09:15.066Z,99024.44
2023-04-29T03:11:41.416Z,99029.63
2023-04-29T03:14:07.765Z,99024.44
2023-04-29T03:16:34.179Z,99023.13
2023-04-29T03:19:00.603Z,99019.78
2023-04-29T03:21:26.956Z,99024.72
2023-04-29T03:23:53.295Z,99028.63
2023-04-29T03:26:19.695Z,99030.69
2023-04-29T03:28:46.084Z,99025.75
2023-04-29T03:31:12.490Z,99034.88
2023-04-29T03:33:38.840Z,99033.84
2023-04-29T03:36:05.420Z,99038.78
2023-04-29T03:38:31.745Z,99042.16
2023-04-29T03:40:58.123Z,99034.88
2023-04-29T03:43:24.478Z,99033.06
2023-04-29T03:45:50.894Z,99022.44
2023-04-29T03:48:17.245Z,99021.91
2023-04-29T03:50:43.630Z,99016.44
2023-04-29T03:53:09.970Z,99027.38
2023-04-29T03:55:36.310Z,99033.84
2023-04-29T03:58:02.664Z,99040.59
2023-04-29T04:00:30.166Z,99056.94
2023-04-29T04:02:57.313Z,99059.06
2023-04-29T04:05:23.734Z,99064.47
2023-04-29T04:07:50.081Z,99069.13
2023-04-29T04:10:16.445Z,99076.44
2023-04-29T04:12:44.264Z,99081.88
2023-04-29T04:15:10.839Z,99079.28
2023-04-29T04:17:37.217Z,99082.13
2023-04-29T04:20:03.731Z,99091.47
2023-04-29T04:22:30.073Z,99096.66
2023-04-29T04:24:56.402Z,99091.75
2023-04-29T04:27:22.815Z,99101.34
2023-04-29T04:29:53.684Z,99106.03
2023-04-29T04:32:23.681Z,99110.47
2023-04-29T04:34:50.560Z,99095.44
2023-04-29T04:37:16.894Z,99109.50
2023-04-29T04:39:43.342Z,99114.69
2023-04-29T04:42:09.684Z,99121.94
2023-04-29T04:44:36.020Z,99132.88
2023-04-29T04:47:02.381Z,99130.53
2023-04-29T04:49:28.720Z,99117.59
2023-04-29T04:51:55.077Z,99131.06
2023-04-29T04:54:21.419Z,99136.81
2023-04-29T04:56:47.767Z,99143.81
2023-04-29T04:59:14.199Z,99143.56
2023-04-29T05:01:40.637Z,99156.06
2023-04-29T05:04:07.188Z,99181.78
2023-04-29T05:06:33.596Z,99192.16
2023-04-29T05:08:59.951Z,99201.00
2023-04-29T05:11:26.311Z,99194.22
2023-04-29T05:13:52.663Z,99207.50
2023-04-29T05:16:19.112Z,99224.41
2023-04-29T05:18:45.481Z,99228.81
2023-04-29T05:21:12.480Z,99233.75
2023-04-29T05:23:38.833Z,99232.47
2023-04-29T05:26:05.211Z,99252.22
2023-04-29T05:28:31.550Z,99265.22
2023-04-29T05:30:57.954Z,99286.03
2023-04-29T05:33:24.328Z,99308.38
2023-04-29T05:35:50.696Z,99318.50
2023-04-29T05:38:17.051Z,99326.81
2023-04-29T05:40:43.411Z,99326.06
2023-04-29T05:43:09.761Z,99346.38
2023-04-29T05:45:36.125Z,99361.97
2023-04-29T05:48:02.521Z,99377.81
2023-04-29T05:50:28.928Z,99393.69
2023-04-29T05:52:55.275Z,99395.00
2023-04-29T05:55:21.644Z,99423.63
2023-04-29T05:57:47.998Z,99437.94
2023-04-29T06:00:14.406Z,99470.22
2023-04-29T06:02:50.627Z,99486.56
2023-04-29T06:05:24.534Z,99514.69
2023-04-29T06:07:51.103Z,99524.78
2023-04-29T06:10:17.573Z,99544.03
2023-04-29T06:12:43.939Z,99556.53
2023-04-29T06:15:10.528Z,99571.94
2023-04-29T06:17:36.931Z,99607.31
2023-04-29T06:20:03.496Z,99638.38
2023-04-29T06:22:29.867Z,99658.84
2023-04-29T06:24:56.224Z,99687.75
2023-04-29T06:27:22.596Z,99724.13
2023-04-29T06:29:49.098Z,99740.00
2023-04-29T06:32:15.449Z,99739.06
2023-04-29T06:34:41.797Z,99733.66
2023-04-29T06:37:08.154Z,99720.22
2023-04-29T06:39:34.493Z,99762.31
2023-04-29T06:42:00.849Z,99805.13
2023-04-29T06:44:27.187Z,99855.47
2023-04-29T06:46:53.563Z,99908.91
2023-04-29T06:49:20.194Z,99964.63
2023-04-29T06:51:46.546Z,99999.38
2023-04-29T06:54:12.889Z,100017.19
2023-04-29T06:56:39.243Z,100047.44
2023-04-29T06:59:05.618Z,100054.69
2023-04-29T07:01:32.033Z,100062.31
2023-04-29T07:03:58.681Z,100064.84
2023-04-29T07:06:25.164Z,100057.56
2023-04-29T07:08:51.536Z,100067.31
2023-04-29T07:11:17.906Z,100073.72
2023-04-29T07:13:44.252Z,100064.50
2023-04-29T07:16:17.090Z,100062.06
2023-04-29T07:18:43.741Z,100058.88
2023-04-29T07:21:10.099Z,100044.06
2023-04-29T07:23:36.444Z,100030.84
2023-04-29T07:26:15.815Z,100035.31
2023-04-29T07:28:42.412Z,100037.75
2023-04-29T07:31:08.880Z,100083.53
2023-04-29T07:33:35.419Z,100121.28
2023-04-29T07:36:02.273Z,99975.22
2023-04-29T07:38:28.687Z,99989.25
2023-04-29T07:40:55.095Z,99929.50
2023-04-29T07:43:21.482Z,99982.19
2023-04-29T07:45:48.313Z,100002.56
2023-04-29T07:48:14.669Z,100051.84
2023-04-29T07:50:41.020Z,100103.47
2023-04-29T07:53:07.388Z,100103.97
2023-04-29T07:55:33.784Z,100018.19
2023-04-29T07:58:00.633Z,99994.78
2023-04-29T08:00:27.120Z,100021.31
2023-04-29T08:02:54.159Z,100063.03
2023-04-29T08:05:20.867Z,99987.34
2023-04-29T08:07:48.038Z,100140.28
2023-04-29T08:10:14.792Z,100079.47
2023-04-29T08:12:41.176Z,99963.56
2023-04-29T08:15:09.670Z,100089.28
2023-04-29T08:17:36.369Z,100084.97
2023-04-29T08:20:02.876Z,100095.22
2023-04-29T08:22:29.290Z,100209.38
2023-04-29T08:24:55.627Z,100204.41
2023-04-29T08:27:21.980Z,100223.81
2023-04-29T08:29:48.361Z,100279.75
2023-04-29T08:32:14.728Z,100252.16
2023-04-29T08:34:41.076Z,100148.25
2023-04-29T08:37:07.432Z,100169.47
2023-04-29T08:39:33.783Z,100133.16
2023-04-29T08:42:00.246Z,100146.03
2023-04-29T08:44:26.681Z,100210.63
2023-04-29T08:46:53.064Z,100269.44
2023-04-29T08:49:19.401Z,100317.66
2023-04-29T08:51:48.814Z,100271.56
2023-04-29T08:54:15.162Z,100254.81
2023-04-29T08:56:43.700Z,100306.00
2023-04-29T08:59:10.057Z,100311.91
2023-04-29T09:01:36.629Z,100114.72
2023-04-29T09:04:44.958Z,100251.63
2023-04-29T09:07:11.352Z,100096.44
2023-04-29T09:09:37.694Z,100126.84
2023-04-29T09:12:04.051Z,100103.56
2023-04-29T09:14:30.429Z,100192.16
2023-04-29T09:16:56.816Z,100086.97
2023-04-29T09:19:32.916Z,100151.44
2023-04-29T09:21:59.592Z,100042.72
2023-04-29T09:24:26.647Z,100162.97
2023-04-29T09:26:53.102Z,99978.88
2023-04-29T09:29:19.451Z,99957.34
2023-04-29T09:31:46.001Z,100062.88
2023-04-29T09:34:12.513Z,99938.97
2023-04-29T09:36:42.668Z,99682.09
2023-04-29T09:39:09.587Z,99652.94
2023-04-29T09:41:35.972Z,99838.13
2023-04-29T09:44:06.005Z,100110.34
2023-04-29T09:46:35.653Z,99961.47
2023-04-29T09:49:03.168Z,100052.84
2023-04-29T09:51:29.532Z,100087.75
2023-04-29T09:53:55.882Z,100022.63
2023-04-29T09:56:22.232Z,99867.16
2023-04-29T09:58:48.574Z,99853.03
2023-04-29T10:01:14.952Z,100097.84
2023-04-29T10:03:41.420Z,99761.91
2023-04-29T10:06:07.962Z,99807.22
2023-04-29T10:08:34.438Z,99895.97
2023-04-29T10:11:01.961Z,99902.34
2023-04-29T10:13:28.525Z,99956.50
2023-04-29T10:16:11.033Z,100023.03
2023-04-29T10:18:37.667Z,100109.00
2023-04-29T10:21:07.166Z,100008.03
2023-04-29T10:23:33.662Z,99915.03
2023-04-29T10:26:00.713Z,99989.63
2023-04-29T10:28:27.052Z,100037.22
2023-04-29T10:30:54.093Z,100084.66
2023-04-29T10:33:20.644Z,100059.34
2023-04-29T10:35:47.029Z,99861.13
2023-04-29T10:38:18.497Z,99895.22
2023-04-29T10:40:45.500Z,99884.69
2023-04-29T10:43:11.854Z,99821.81
2023-04-29T10:45:38.515Z,100015.47
2023-04-29T10:48:04.793Z,99770.19
2023-04-29T10:50:49.208Z,99673.75
2023-04-29T10:53:16.863Z,99704.78
2023-04-29T10:55:43.219Z,99695.63
2023-04-29T10:58:40.432Z,99473.28
2023-04-29T11:01:07.011Z,99463.56
2023-04-29T11:03:52.002Z,99733.03
2023-04-29T11:06:18.620Z,99814.41
2023-04-29T11:08:44.967Z,99682.78
2023-04-29T11:11:12.860Z,99695.69
2023-04-29T11:13:39.806Z,99678.44
2023-04-29T11:16:10.195Z,99702.34
2023-04-29T11:18:37.701Z,99827.03
2023-04-29T11:21:06.978Z,99744.78
2023-04-29T11:23:39.539Z,99836.81
2023-04-29T11:26:05.900Z,99788.34
2023-04-29T11:28:32.633Z,99566.88
2023-04-29T11:30:59.078Z,99527.78
2023-04-29T11:33:26.108Z,99648.78
2023-04-29T11:35:52.475Z,99301.53
2023-04-29T11:38:21.005Z,99190.59
2023-04-29T11:40:50.481Z,98852.28
2023-04-29T11:43:17.736Z,99326.28
2023-04-29T11:45:47.344Z,99257.06
2023-04-29T11:48:24.103Z,99314.94
2023-04-29T11:50:51.966Z,99278.44
2023-04-29T11:53:21.861Z,99595.78
2023-04-29T11:55:48.220Z,99527.47
2023-04-29T11:58:14.947Z,99538.13
2023-04-29T12:00:41.311Z,99796.56
2023-04-29T12:03:14.466Z,99477.19
2023-04-29T12:05:46.705Z,99813.63
2023-04-29T12:08:13.181Z,99749.75
2023-04-29T12:10:39.548Z,99786.56
2023-04-29T12:13:06.229Z,99706.06
2023-04-29T12:15:33.312Z,99599.47
2023-04-29T12:18:00.510Z,99548.59
2023-04-29T12:20:26.876Z,99508.00
2023-04-29T12:22:53.337Z,99461.88
2023-04-29T12:25:19.695Z,99280.97
2023-04-29T12:27:46.043Z,99236.22
2023-04-29T12:30:12.599Z,99022.47
2023-04-29T12:32:39.270Z,98772.25
2023-04-29T12:35:05.937Z,98794.81
2023-04-29T12:37:33.157Z,98746.41
2023-04-29T12:39:59.500Z,98882.00
2023-04-29T12:42:32.514Z,98928.00
2023-04-29T12:44:58.900Z,99065.19
2023-04-29T12:47:25.322Z,99227.91
2023-04-29T12:49:51.674Z,99128.25
2023-04-29T12:52:18.032Z,99196.72
2023-04-29T12:54:44.434Z,99333.78
2023-04-29T12:57:11.945Z,99226.59
2023-04-29T12:59:38.456Z,99050.81
2023-04-29T13:02:06.614Z,99207.22
2023-04-29T13:04:34.042Z,99049.91
2023-04-29T13:07:00.566Z,98763.47
2023-04-29T13:09:27.041Z,98921.06
2023-04-29T13:11:53.433Z,98902.72
2023-04-29T13:14:20.037Z,98866.09
2023-04-29T13:16:47.007Z,99107.06
2023-04-29T13:21:44.283Z,99150.22
2023-04-29T13:24:10.656Z,99123.13
2023-04-29T13:26:37.009Z,99118.56
2023-04-29T13:29:03.366Z,99145.69
2023-04-29T13:31:30.247Z,99195.06
2023-04-29T13:33:57.323Z,98967.41
2023-04-29T13:36:23.774Z,98942.56
2023-04-29T13:38:55.068Z,98814.91
2023-04-29T13:41:22.079Z,99042.09
2023-04-29T13:43:50.777Z,99094.94
2023-04-29T13:46:20.695Z,99204.88
2023-04-29T14:01:44.205Z,99387.72
2023-04-29T14:04:03.492Z,99416.84
2023-04-29T14:06:29.935Z,99539.63
2023-04-29T14:08:56.294Z,99354.72
2023-04-29T14:11:22.708Z,99365.44
2023-04-29T14:13:49.080Z,99519.53
2023-04-29T14:16:15.697Z,99618.91
2023-04-29T14:18:42.122Z,99530.88
2023-04-29T14:21:08.518Z,99527.59
2023-04-29T14:23:34.931Z,99641.47
2023-04-29T14:28:30.549Z,99636.03
2023-04-29T14:30:56.940Z,99525.63
2023-04-29T14:33:23.319Z,99550.88
2023-04-29T14:35:49.665Z,99673.28
2023-04-29T14:38:16.004Z,99639.44
2023-04-29T14:40:42.366Z,99740.03
2023-04-29T14:43:08.714Z,99875.53
2023-04-29T14:45:35.202Z,99619.59
2023-04-29T14:48:01.565Z,99394.66
2023-04-29T14:50:27.976Z,99483.34
2023-04-29T14:52:54.315Z,99529.16
2023-04-29T14:55:20.660Z,99562.03
2023-04-29T14:57:47.003Z,99580.50
2023-04-29T15:00:14.126Z,99645.22
2023-04-29T15:02:40.559Z,99696.09
2023-04-29T15:05:07.031Z,99747.38
2023-04-29T15:07:33.380Z,99697.66
2023-04-29T15:09:59.740Z,99704.47
2023-04-29T15:12:26.074Z,99665.75
2023-04-29T15:14:52.579Z,99604.03
2023-04-29T15:17:19.112Z,99500.59
2023-04-29T15:19:45.463Z,99640.41
2023-04-29T15:22:11.795Z,99686.56
2023-04-29T15:24:38.155Z,99714.00
2023-04-29T15:27:04.493Z,99662.88
2023-04-29T15:29:30.861Z,99745.16
2023-04-29T15:31:57.287Z,99766.91
2023-04-29T15:34:23.697Z,99930.78
2023-04-29T15:36:50.052Z,99831.75
2023-04-29T15:39:16.415Z,99739.31
2023-04-29T15:41:42.755Z,99692.38
2023-04-29T15:44:09.104Z,99762.66
2023-04-29T15:46:35.444Z,99862.41
2023-04-29T15:49:01.800Z,99831.88
2023-04-29T15:51:28.153Z,99911.56
2023-04-29T15:53:54.506Z,99940.72
2023-04-29T15:56:20.885Z,99939.94
2023-04-29T15:58:47.243Z,99880.22
2023-04-29T16:01:13.618Z,99976.63
2023-04-29T16:03:46.818Z,100028.22
2023-04-29T16:06:13.304Z,100020.91
2023-04-29T16:08:41.016Z,100046.84
2023-04-29T16:11:07.358Z,100137.16
2023-04-29T16:13:36.124Z,100139.78
2023-04-29T16:16:02.794Z,100254.56
2023-04-29T16:18:29.150Z,100259.25
2023-04-29T16:20:55.501Z,100185.09
2023-04-29T16:23:21.935Z,100121.22
2023-04-29T16:25:48.274Z,100010.72
2023-04-29T16:28:14.625Z,100057.44
2023-04-29T16:30:40.993Z,100134.66
2023-04-29T16:33:07.348Z,100131.19
2023-04-29T16:35:33.708Z,100016.78
2023-04-29T16:38:00.058Z,100011.59
2023-04-29T16:40:26.494Z,100022.41
2023-04-29T16:42:52.845Z,100022.16
2023-04-29T16:45:20.475Z,100181.06
2023-04-29T16:47:48.049Z,100089.50
2023-04-29T16:50:14.455Z,100096.03
2023-04-29T16:52:40.820Z,100186.88
2023-04-29T16:55:07.419Z,100130.38
2023-04-29T16:57:33.772Z,100131.94
2023-04-29T17:00:00.151Z,100153.16
2023-04-29T17:02:26.569Z,100145.28
2023-04-29T17:04:53.055Z,100136.41
2023-04-29T17:07:19.566Z,100189.53
2023-04-29T17:09:46.471Z,100222.53
2023-04-29T17:12:13.210Z,100283.22
2023-04-29T17:14:40.362Z,100280.09
2023-04-29T17:17:06.892Z,100249.72
2023-04-29T17:19:33.367Z,100299.94
2023-04-29T17:21:59.721Z,100300.97
2023-04-29T17:24:26.075Z,100259.06
2023-04-29T17:26:52.415Z,100312.41
2023-04-29T17:29:18.795Z,100314.25
2023-04-29T17:31:45.354Z,100323.66
2023-04-29T17:34:12.396Z,100341.38
2023-04-29T17:36:38.740Z,100291.34
2023-04-29T17:39:05.089Z,100307.81
2023-04-29T17:41:32.702Z,100385.44
2023-04-29T17:43:59.060Z,100337.56
2023-04-29T17:46:25.499Z,100289.69
2023-04-29T17:48:51.909Z,100342.66
2023-04-29T17:51:18.258Z,100287.75
2023-04-29T17:53:44.607Z,100211.19
2023-04-29T17:56:10.960Z,100179.31
2023-04-29T17:58:37.316Z,100202.97
2023-04-29T18:01:04.703Z,100228.81
2023-04-29T18:03:31.240Z,100235.25
2023-04-29T18:05:57.758Z,100265.78
2023-04-29T18:08:24.103Z,100269.16
2023-04-29T18:10:50.440Z,100255.75
2023-04-29T18:13:16.788Z,100273.91
2023-04-29T18:15:43.143Z,100338.94
2023-04-29T18:18:09.540Z,100332.09
2023-04-29T18:20:35.915Z,100325.28
2023-04-29T18:23:02.266Z,100359.53
2023-04-29T18:25:28.627Z,100385.75
2023-04-29T18:28:03.517Z,100388.00
2023-04-29T18:30:39.879Z,100384.84
2023-04-29T18:33:06.252Z,100400.34
2023-04-29T18:35:32.614Z,100372.53
2023-04-29T18:37:59.096Z,100445.84
2023-04-29T18:40:25.432Z,100429.56
2023-04-29T18:42:51.766Z,100425.56
2023-04-29T18:45:18.125Z,100381.38
2023-04-29T18:47:44.511Z,100453.63
2023-04-29T18:50:10.919Z,100490.41
2023-04-29T18:52:37.276Z,100549.78
2023-04-29T18:55:03.695Z,100597.72
2023-04-29T18:57:30.033Z,100591.44
2023-04-29T18:59:56.520Z,100619.34
2023-04-29T19:02:22.952Z,100700.84
2023-04-29T19:04:49.390Z,100695.88
2023-04-29T19:07:15.751Z,100760.34
2023-04-29T19:09:42.107Z,100768.50
2023-04-29T19:12:08.456Z,100749.50
2023-04-29T19:14:34.802Z,100816.44
2023-04-29T19:17:01.201Z,100872.81
2023-04-29T19:19:27.570Z,100922.25
2023-04-29T19:21:53.940Z,100948.41
2023-04-29T19:24:20.295Z,101027.41
2023-04-29T19:26:46.636Z,101040.66
2023-04-29T19:29:13.428Z,101053.25
2023-04-29T19:31:39.822Z,101075.81
2023-04-29T19:34:06.222Z,101090.75
2023-04-29T19:36:32.565Z,101126.19
2023-04-29T19:38:58.932Z,101150.06
2023-04-29T19:41:25.288Z,101118.50
2023-04-29T19:43:51.634Z,101111.50
2023-04-29T19:46:18.042Z,101168.19
2023-04-29T19:48:44.418Z,101130.84
2023-04-29T19:51:10.774Z,101161.97
2023-04-29T19:53:37.149Z,101177.72
2023-04-29T19:56:03.527Z,101213.97
2023-04-29T19:58:29.869Z,101189.25
2023-04-29T20:00:56.260Z,101176.88
2023-04-29T20:03:22.721Z,101182.06
2023-04-29T20:05:49.166Z,101188.84
2023-04-29T20:08:15.518Z,101211.22
2023-04-29T20:10:41.903Z,101212.63
2023-04-29T20:13:08.275Z,101246.00
2023-04-29T20:15:34.744Z,101211.53
2023-04-29T20:18:01.099Z,101213.31
2023-04-29T20:20:27.492Z,101206.63
2023-04-29T20:22:53.836Z,101213.38
2023-04-29T20:25:20.190Z,101204.88
2023-04-29T20:27:46.535Z,101237.13
2023-04-29T20:30:12.949Z,101247.31
2023-04-29T20:32:39.453Z,101246.56
2023-04-29T20:35:06.056Z,101249.97
2023-04-29T20:37:32.398Z,101255.69
2023-04-29T20:39:58.775Z,101242.91
2023-04-29T20:42:25.125Z,101254.47
2023-04-29T20:44:51.489Z,101229.38
2023-04-29T20:47:17.837Z,101238.56
2023-04-29T20:49:44.191Z,101231.44
2023-04-29T20:52:10.539Z,101257.03
2023-04-29T20:54:36.908Z,101227.69
2023-04-29T20:57:03.288Z,101241.84
2023-04-29T20:59:29.639Z,101224.28
2023-04-29T21:01:56.128Z,101202.25
2023-04-29T21:04:22.665Z,101172.59
2023-04-29T21:06:49.063Z,101125.91
2023-04-29T21:09:15.418Z,101169.69
2023-04-29T21:11:41.758Z,101139.50
2023-04-29T21:14:08.095Z,101120.88
2023-04-29T21:16:34.444Z,101169.88
2023-04-29T21:19:00.782Z,101210.44
2023-04-29T21:21:27.141Z,101242.97
2023-04-29T21:23:53.474Z,101252.38
2023-04-29T21:26:19.866Z,101254.97
2023-04-29T21:28:46.206Z,101259.38
2023-04-29T21:31:12.574Z,101276.97
2023-04-29T21:33:38.945Z,101288.19
2023-04-29T21:36:05.327Z,101278.78
2023-04-29T21:38:31.657Z,101276.00
2023-04-29T21:40:58.025Z,101254.81
2023-04-29T21:43:24.363Z,101256.81
2023-04-29T21:45:50.712Z,101244.84
2023-04-29T21:48:17.891Z,101234.00
2023-04-29T21:50:44.333Z,101228.81
2023-04-29T21:53:13.784Z,101230.59
2023-04-29T21:55:41.689Z,101194.06
2023-04-29T21:58:08.050Z,101153.97
2023-04-29T22:00:34.424Z,101142.41
2023-04-29T22:03:01.186Z,101154.94
2023-04-29T22:05:27.572Z,101158.56
2023-04-29T22:07:53.987Z,101179.94
2023-04-29T22:10:20.334Z,101166.75
2023-04-29T22:12:46.682Z,101190.50
2023-04-29T22:15:26.883Z,101209.84
2023-04-29T22:17:54.428Z,101221.63
2023-04-29T22:20:26.800Z,101234.00
2023-04-29T22:23:06.385Z,101214.81
2023-04-29T22:25:34.950Z,101228.56
2023-04-29T22:31:01.355Z,101269.28
2023-04-29T22:33:35.531Z,101258.00
2023-04-29T22:39:04.881Z,101283.16
2023-04-29T22:41:38.753Z,101282.13
2023-04-29T22:44:10.121Z,101269.56
2023-04-29T22:46:36.531Z,101276.94
2023-04-29T22:49:20.964Z,101275.19
2023-04-29T22:51:55.039Z,101274.13
2023-04-29T22:57:34.494Z,101303.81
2023-04-29T23:02:43.671Z,101309.66
2023-04-29T23:05:10.094Z,101342.25
2023-04-29T23:07:36.431Z,101323.63
2023-04-29T23:10:02.788Z,101326.22
2023-04-29T23:12:29.123Z,101334.34
2023-04-29T23:14:55.496Z,101359.16
2023-04-29T23:17:21.854Z,101351.13
2023-04-29T23:19:48.204Z,101356.25
2023-04-29T23:22:14.545Z,101366.66
2023-04-29T23:24:40.897Z,101365.66
2023-04-29T23:27:07.237Z,101371.28
2023-04-29T23:29:33.566Z,101367.88
2023-04-29T23:32:00.166Z,101367.09
2023-04-29T23:34:26.503Z,101353.28
2023-04-29T23:36:52.882Z,101353.28
2023-04-29T23:39:19.225Z,101370.66
2023-04-29T23:41:45.590Z,101385.72
2023-04-29T23:44:11.956Z,101383.09
2023-04-29T23:46:38.379Z,101369.44
2023-04-29T23:49:04.748Z,101376.72
2023-04-29T23:51:31.105Z,101372.59
2023-04-29T23:53:57.457Z,101353.38
2023-04-29T23:56:23.805Z,101343.72
2023-04-29T23:58:50.156Z,101362.31
